Huvudsida
METAR-TAF:

METAR-TAF

Flygplatser :

Damascus Int. Airport

Damaskus, Syrien

latitud: 33-25N, longitud: 036-31E, höjd: 608 m

Aktuellt väderrapport

Denna rapport gjordes för 37 minuter sedan, klockan 14:00 UTC
Vind 18 kt från sydväst
Temperatur 16°C
Fuktighet 72%
Tryck 1019 hPa
Sikt 10 km eller mer

METAR: OSDI 161400Z 23018KT 9999 SCT026BSU 16/11 Q1019

Tid: 16:37 (14:37 UTC)

Väderprognos

Denna rapport gjordes för 4 timmar och 37 minuter sedan, klockan 10:00 UTC
Prognos gäller från 16 kl. 12 UTC till 17 kl. 18 UTC
Vind 10 kt från sydväst
Sikt 10 km eller mer
Spridda moln på en höjd av 3000 ft
Brutna moln på en höjd av 10000 ft
Sannolikhet 30% :
Temporärt
från 16 kl. 12 UTC till 16 kl. 18 UTC
Vind 15 kt från väst
Sikt: 5000 m
Få moln på en höjd av 2500 ft, Cumulonimbus.
Brutna moln på en höjd av 3000 ft
Mulet på en höjd av 10000 ft
regnskurar

TAF: OSDI 161000Z 1612/1718 22010KT 9999 SCT030 BKN100 PROB30 TEMPO 1612/1618 28015KT 5000 SHRA FEW025CB BKN030 OVC100

Aktuella väderrapporter och prognoser från 4000 flygplatser (METAR- och TAF-rapporter).

De tillgängliga stationerna syns som gula och röda prickar på kartan.

För musen över prickarna för att se namnen på stationerna.

Klicka sedan för att få väderrapporter och prognoser.

För att ändra kartan: Klicka på de gröna knapparna med ett svart kors på för att zooma in; den gröna knappen med ett streck på för att zooma ut; eller på de gröna pilarna för angränsande kartor.


METAR-TAF: